SGAS/ASU METAR and TAF weather

Enter ICAO airport designator
Station Type Date Time Source
SGAS METAR 2017/01/22 18:00 UTC NOAA

SGAS 221800Z VRB05KT 9999 TS BKN030 FEW040CB 33/22 Q1008


Station Type Date Time Source
SGAS Decoded METAR 2017/01/22 18:00 UTC NOAA

Asuncion / Aeropuerto, Paraguay (SGAS) 25-16S 057-38W 101M
Jan 22, 2017 - 01:00 PM EST / 2017.01.22 1800 UTC
Wind: Variable at 6 MPH (5 KT):0
Visibility: greater than 7 mile(s):0
Sky conditions: mostly cloudy
Weather: thunder; Cumulonimbus clouds observed
Temperature: 91 F (33 C)
Heat index: 97.5 F (36.4 C):1
Dew Point: 71 F (22 C)
Relative Humidity: 52%
Pressure (altimeter): 29.77 in. Hg (1008 hPa)
ob: SGAS 221800Z VRB05KT 9999 TS BKN030 FEW040CB 33/22 Q1008
cycle: 18

Station Type Date Time Source
SGAS TAF 2017/01/22 18:06 UTC NOAA

TAF TAF SGAS 221704Z 2218/2318 VRB05KT 9999 SCT033 FEW040TCU TX37/2219Z TN24/2309Z PROB30
TEMPO 2220/2222 07011KT 8000 TS SHRA BKN027 FEW040CB
BECMG 2302/2305 VRB03KT CAVOK
BECMG 2311/2314 03006KT 9999 FEW030


Example: see airport list